sensor_id;sensor_type;location;lat;lon;timestamp;temperature;humidity
37996;DHT22;23808;50.634;6.948;2022-09-01T00:03:34;18.60;90.20
37996;DHT22;23808;50.634;6.948;2022-09-01T00:07:34;18.50;90.50
37996;DHT22;23808;50.634;6.948;2022-09-01T00:11:36;18.40;90.90
37996;DHT22;23808;50.634;6.948;2022-09-01T00:15:36;18.20;90.80
37996;DHT22;23808;50.634;6.948;2022-09-01T00:19:38;18.10;91.00
37996;DHT22;23808;50.634;6.948;2022-09-01T00:23:39;18.10;91.20
37996;DHT22;23808;50.634;6.948;2022-09-01T00:27:39;18.00;91.30
37996;DHT22;23808;50.634;6.948;2022-09-01T00:31:41;17.90;91.40
37996;DHT22;23808;50.634;6.948;2022-09-01T00:35:42;17.80;91.40
37996;DHT22;23808;50.634;6.948;2022-09-01T00:39:42;17.80;91.50
37996;DHT22;23808;50.634;6.948;2022-09-01T00:43:46;17.80;91.70
37996;DHT22;23808;50.634;6.948;2022-09-01T00:47:47;17.80;91.90
37996;DHT22;23808;50.634;6.948;2022-09-01T00:51:51;17.70;92.20
37996;DHT22;23808;50.634;6.948;2022-09-01T00:55:53;17.60;92.30
37996;DHT22;23808;50.634;6.948;2022-09-01T01:00:07;17.50;93.00
37996;DHT22;23808;50.634;6.948;2022-09-01T01:04:10;17.40;92.70
37996;DHT22;23808;50.634;6.948;2022-09-01T01:08:14;17.30;93.00
37996;DHT22;23808;50.634;6.948;2022-09-01T01:12:19;17.20;93.10
37996;DHT22;23808;50.634;6.948;2022-09-01T01:16:22;17.10;93.40
37996;DHT22;23808;50.634;6.948;2022-09-01T01:20:26;17.00;93.60
37996;DHT22;23808;50.634;6.948;2022-09-01T01:24:49;16.90;93.80
37996;DHT22;23808;50.634;6.948;2022-09-01T01:28:50;16.80;94.20
37996;DHT22;23808;50.634;6.948;2022-09-01T01:32:51;16.60;94.60
37996;DHT22;23808;50.634;6.948;2022-09-01T01:36:54;16.50;95.00
37996;DHT22;23808;50.634;6.948;2022-09-01T01:41:01;16.40;95.40
37996;DHT22;23808;50.634;6.948;2022-09-01T01:45:05;16.30;95.90
37996;DHT22;23808;50.634;6.948;2022-09-01T01:49:08;16.20;96.30
37996;DHT22;23808;50.634;6.948;2022-09-01T01:53:09;16.10;96.60
37996;DHT22;23808;50.634;6.948;2022-09-01T01:57:11;16.00;97.00
37996;DHT22;23808;50.634;6.948;2022-09-01T02:01:16;16.00;97.40
37996;DHT22;23808;50.634;6.948;2022-09-01T02:05:28;15.90;97.80
37996;DHT22;23808;50.634;6.948;2022-09-01T02:09:29;15.80;98.00
37996;DHT22;23808;50.634;6.948;2022-09-01T02:13:29;15.80;98.50
37996;DHT22;23808;50.634;6.948;2022-09-01T02:17:30;15.80;98.70
37996;DHT22;23808;50.634;6.948;2022-09-01T02:21:30;15.80;98.80
37996;DHT22;23808;50.634;6.948;2022-09-01T02:25:31;15.80;99.20
37996;DHT22;23808;50.634;6.948;2022-09-01T02:29:32;15.70;99.20
37996;DHT22;23808;50.634;6.948;2022-09-01T02:33:32;15.70;99.30
37996;DHT22;23808;50.634;6.948;2022-09-01T02:37:33;15.70;99.50
37996;DHT22;23808;50.634;6.948;2022-09-01T02:41:33;15.70;99.70
37996;DHT22;23808;50.634;6.948;2022-09-01T02:45:34;15.70;99.70
37996;DHT22;23808;50.634;6.948;2022-09-01T02:49:35;15.60;99.80
37996;DHT22;23808;50.634;6.948;2022-09-01T02:53:37;15.60;99.90
37996;DHT22;23808;50.634;6.948;2022-09-01T02:57:38;15.60;99.90
37996;DHT22;23808;50.634;6.948;2022-09-01T03:01:39;15.50;99.90
37996;DHT22;23808;50.634;6.948;2022-09-01T03:05:40;15.50;99.90
37996;DHT22;23808;50.634;6.948;2022-09-01T03:09:40;15.50;99.90
37996;DHT22;23808;50.634;6.948;2022-09-01T03:13:42;15.40;99.90
37996;DHT22;23808;50.634;6.948;2022-09-01T03:17:43;15.30;99.90
37996;DHT22;23808;50.634;6.948;2022-09-01T03:21:45;15.20;99.90
37996;DHT22;23808;50.634;6.948;2022-09-01T03:25:47;15.20;99.90
37996;DHT22;23808;50.634;6.948;2022-09-01T03:29:47;15.10;99.90
37996;DHT22;23808;50.634;6.948;2022-09-01T03:33:48;15.00;99.90
37996;DHT22;23808;50.634;6.948;2022-09-01T03:37:50;14.80;99.90
37996;DHT22;23808;50.634;6.948;2022-09-01T03:41:51;14.70;99.90
37996;DHT22;23808;50.634;6.948;2022-09-01T03:45:54;14.60;99.90
37996;DHT22;23808;50.634;6.948;2022-09-01T03:49:55;14.60;99.90
37996;DHT22;23808;50.634;6.948;2022-09-01T03:53:56;14.50;99.90
37996;DHT22;23808;50.634;6.948;2022-09-01T03:58:00;14.50;99.90
37996;DHT22;23808;50.634;6.948;2022-09-01T04:02:05;14.40;99.90
37996;DHT22;23808;50.634;6.948;2022-09-01T04:06:09;14.40;99.90
37996;DHT22;23808;50.634;6.948;2022-09-01T04:10:10;14.40;99.90
37996;DHT22;23808;50.634;6.948;2022-09-01T04:14:11;14.30;99.90
37996;DHT22;23808;50.634;6.948;2022-09-01T04:18:13;14.30;99.90
37996;DHT22;23808;50.634;6.948;2022-09-01T04:22:21;14.30;99.90
37996;DHT22;23808;50.634;6.948;2022-09-01T04:26:28;14.20;99.90
37996;DHT22;23808;50.634;6.948;2022-09-01T04:30:30;14.20;99.90
37996;DHT22;23808;50.634;6.948;2022-09-01T04:34:35;14.10;99.90
37996;DHT22;23808;50.634;6.948;2022-09-01T04:38:41;14.10;99.90
37996;DHT22;23808;50.634;6.948;2022-09-01T04:42:41;14.10;99.90
37996;DHT22;23808;50.634;6.948;2022-09-01T04:46:45;14.00;99.90
37996;DHT22;23808;50.634;6.948;2022-09-01T04:50:50;14.00;99.90
37996;DHT22;23808;50.634;6.948;2022-09-01T04:54:52;14.00;99.90
37996;DHT22;23808;50.634;6.948;2022-09-01T04:58:53;14.00;99.90
37996;DHT22;23808;50.634;6.948;2022-09-01T05:02:59;14.00;99.90
37996;DHT22;23808;50.634;6.948;2022-09-01T05:07:04;14.00;99.90
37996;DHT22;23808;50.634;6.948;2022-09-01T05:11:05;14.00;99.90
37996;DHT22;23808;50.634;6.948;2022-09-01T05:15:07;14.00;99.90
37996;DHT22;23808;50.634;6.948;2022-09-01T05:19:09;14.10;99.90
37996;DHT22;23808;50.634;6.948;2022-09-01T05:23:13;14.10;99.90
37996;DHT22;23808;50.634;6.948;2022-09-01T05:27:18;14.20;99.90
37996;DHT22;23808;50.634;6.948;2022-09-01T05:31:21;14.30;99.90
37996;DHT22;23808;50.634;6.948;2022-09-01T05:35:22;14.40;99.90
37996;DHT22;23808;50.634;6.948;2022-09-01T05:39:26;14.50;99.90
37996;DHT22;23808;50.634;6.948;2022-09-01T05:43:27;14.50;99.90
37996;DHT22;23808;50.634;6.948;2022-09-01T05:47:30;14.50;99.90
37996;DHT22;23808;50.634;6.948;2022-09-01T05:51:36;14.50;99.90
37996;DHT22;23808;50.634;6.948;2022-09-01T05:55:37;14.60;99.90
37996;DHT22;23808;50.634;6.948;2022-09-01T05:59:37;14.70;99.90
37996;DHT22;23808;50.634;6.948;2022-09-01T06:03:41;14.70;99.90
37996;DHT22;23808;50.634;6.948;2022-09-01T06:07:43;14.80;99.90
37996;DHT22;23808;50.634;6.948;2022-09-01T06:11:45;14.80;99.90
37996;DHT22;23808;50.634;6.948;2022-09-01T06:15:50;15.00;99.90
37996;DHT22;23808;50.634;6.948;2022-09-01T06:19:54;15.20;99.90
37996;DHT22;23808;50.634;6.948;2022-09-01T06:23:56;15.30;99.90
37996;DHT22;23808;50.634;6.948;2022-09-01T06:27:57;15.40;99.90
37996;DHT22;23808;50.634;6.948;2022-09-01T06:32:00;15.60;99.90
37996;DHT22;23808;50.634;6.948;2022-09-01T06:36:02;15.70;99.90
37996;DHT22;23808;50.634;6.948;2022-09-01T06:40:04;15.90;99.90
37996;DHT22;23808;50.634;6.948;2022-09-01T06:44:04;16.00;99.90
37996;DHT22;23808;50.634;6.948;2022-09-01T06:48:05;16.20;99.90
37996;DHT22;23808;50.634;6.948;2022-09-01T06:52:06;16.40;99.90
37996;DHT22;23808;50.634;6.948;2022-09-01T06:56:08;16.60;99.90
37996;DHT22;23808;50.634;6.948;2022-09-01T07:00:13;16.80;99.90
37996;DHT22;23808;50.634;6.948;2022-09-01T07:04:20;17.00;99.90
37996;DHT22;23808;50.634;6.948;2022-09-01T07:08:21;17.30;99.90
37996;DHT22;23808;50.634;6.948;2022-09-01T07:12:22;17.50;99.90
37996;DHT22;23808;50.634;6.948;2022-09-01T07:16:25;17.90;99.90
37996;DHT22;23808;50.634;6.948;2022-09-01T07:20:26;18.20;99.20
37996;DHT22;23808;50.634;6.948;2022-09-01T07:24:28;18.60;98.90
37996;DHT22;23808;50.634;6.948;2022-09-01T07:28:29;19.10;98.00
37996;DHT22;23808;50.634;6.948;2022-09-01T07:32:31;19.70;97.20
37996;DHT22;23808;50.634;6.948;2022-09-01T07:36:33;20.30;96.00
37996;DHT22;23808;50.634;6.948;2022-09-01T07:40:37;20.80;94.80
37996;DHT22;23808;50.634;6.948;2022-09-01T07:44:38;21.20;93.70
37996;DHT22;23808;50.634;6.948;2022-09-01T07:48:39;21.50;93.10
37996;DHT22;23808;50.634;6.948;2022-09-01T07:52:41;21.70;92.30
37996;DHT22;23808;50.634;6.948;2022-09-01T07:56:42;21.80;91.50
37996;DHT22;23808;50.634;6.948;2022-09-01T08:00:44;21.80;91.40
37996;DHT22;23808;50.634;6.948;2022-09-01T08:04:49;22.00;91.10
37996;DHT22;23808;50.634;6.948;2022-09-01T08:08:50;22.30;90.50
37996;DHT22;23808;50.634;6.948;2022-09-01T08:12:50;22.50;90.00
37996;DHT22;23808;50.634;6.948;2022-09-01T08:16:51;22.50;90.10
37996;DHT22;23808;50.634;6.948;2022-09-01T08:20:52;22.90;89.80
37996;DHT22;23808;50.634;6.948;2022-09-01T08:24:53;23.20;88.60
37996;DHT22;23808;50.634;6.948;2022-09-01T08:28:54;23.50;86.80
37996;DHT22;23808;50.634;6.948;2022-09-01T08:32:55;23.70;85.30
37996;DHT22;23808;50.634;6.948;2022-09-01T08:36:57;23.70;85.00
37996;DHT22;23808;50.634;6.948;2022-09-01T08:40:58;23.90;84.10
37996;DHT22;23808;50.634;6.948;2022-09-01T08:45:17;24.20;84.10
37996;DHT22;23808;50.634;6.948;2022-09-01T08:49:22;24.50;82.20
37996;DHT22;23808;50.634;6.948;2022-09-01T08:53:31;24.30;81.90
37996;DHT22;23808;50.634;6.948;2022-09-01T08:57:45;24.50;81.60
37996;DHT22;23808;50.634;6.948;2022-09-01T09:07:02;24.40;80.30
37996;DHT22;23808;50.634;6.948;2022-09-01T09:15:45;24.90;79.10
37996;DHT22;23808;50.634;6.948;2022-09-01T09:19:46;25.00;78.50
37996;DHT22;23808;50.634;6.948;2022-09-01T09:23:53;25.10;78.00
37996;DHT22;23808;50.634;6.948;2022-09-01T09:27:56;25.50;77.90
37996;DHT22;23808;50.634;6.948;2022-09-01T09:32:04;25.70;76.70
37996;DHT22;23808;50.634;6.948;2022-09-01T09:36:19;26.00;75.60
37996;DHT22;23808;50.634;6.948;2022-09-01T09:40:25;26.00;75.30
37996;DHT22;23808;50.634;6.948;2022-09-01T09:44:29;26.30;75.30
37996;DHT22;23808;50.634;6.948;2022-09-01T09:48:30;26.80;74.00
37996;DHT22;23808;50.634;6.948;2022-09-01T09:52:33;26.90;72.70
37996;DHT22;23808;50.634;6.948;2022-09-01T09:56:34;27.30;72.50
37996;DHT22;23808;50.634;6.948;2022-09-01T10:00:34;27.80;71.10
37996;DHT22;23808;50.634;6.948;2022-09-01T10:04:37;28.00;69.50
37996;DHT22;23808;50.634;6.948;2022-09-01T10:08:41;28.00;69.30
37996;DHT22;23808;50.634;6.948;2022-09-01T10:12:44;28.20;69.00
37996;DHT22;23808;50.634;6.948;2022-09-01T10:16:47;28.60;68.10
37996;DHT22;23808;50.634;6.948;2022-09-01T10:25:00;29.20;65.90
37996;DHT22;23808;50.634;6.948;2022-09-01T10:29:08;28.90;66.10
37996;DHT22;23808;50.634;6.948;2022-09-01T10:33:17;28.50;66.70
37996;DHT22;23808;50.634;6.948;2022-09-01T10:37:18;28.60;66.30
37996;DHT22;23808;50.634;6.948;2022-09-01T10:41:45;28.60;66.00
37996;DHT22;23808;50.634;6.948;2022-09-01T10:45:50;28.70;65.50
37996;DHT22;23808;50.634;6.948;2022-09-01T10:53:53;28.60;65.90
37996;DHT22;23808;50.634;6.948;2022-09-01T11:02:24;28.50;66.50
37996;DHT22;23808;50.634;6.948;2022-09-01T11:11:11;29.40;63.70
37996;DHT22;23808;50.634;6.948;2022-09-01T11:23:47;26.70;66.60
37996;DHT22;23808;50.634;6.948;2022-09-01T11:31:48;27.20;66.50
37996;DHT22;23808;50.634;6.948;2022-09-01T11:36:00;27.60;66.10
37996;DHT22;23808;50.634;6.948;2022-09-01T11:40:03;28.10;65.40
37996;DHT22;23808;50.634;6.948;2022-09-01T11:48:23;28.60;64.30
37996;DHT22;23808;50.634;6.948;2022-09-01T11:52:33;29.00;64.00
37996;DHT22;23808;50.634;6.948;2022-09-01T11:56:35;28.70;63.40
37996;DHT22;23808;50.634;6.948;2022-09-01T12:00:38;28.50;64.20
37996;DHT22;23808;50.634;6.948;2022-09-01T12:04:39;28.20;63.80
37996;DHT22;23808;50.634;6.948;2022-09-01T12:08:41;27.50;65.00
37996;DHT22;23808;50.634;6.948;2022-09-01T12:12:59;27.10;65.60
37996;DHT22;23808;50.634;6.948;2022-09-01T12:17:03;26.80;66.50
37996;DHT22;23808;50.634;6.948;2022-09-01T12:21:06;26.80;66.90
37996;DHT22;23808;50.634;6.948;2022-09-01T12:25:27;27.50;66.00
37996;DHT22;23808;50.634;6.948;2022-09-01T12:29:29;27.40;65.00
37996;DHT22;23808;50.634;6.948;2022-09-01T12:33:31;26.90;65.60
37996;DHT22;23808;50.634;6.948;2022-09-01T12:37:32;26.90;65.50
37996;DHT22;23808;50.634;6.948;2022-09-01T12:41:34;27.80;65.00
37996;DHT22;23808;50.634;6.948;2022-09-01T12:45:46;28.70;63.30
37996;DHT22;23808;50.634;6.948;2022-09-01T12:49:47;29.30;62.50
37996;DHT22;23808;50.634;6.948;2022-09-01T12:53:56;29.50;61.30
37996;DHT22;23808;50.634;6.948;2022-09-01T12:58:03;30.00;61.00
37996;DHT22;23808;50.634;6.948;2022-09-01T13:06:36;30.10;59.80
37996;DHT22;23808;50.634;6.948;2022-09-01T13:10:48;29.70;59.20
37996;DHT22;23808;50.634;6.948;2022-09-01T13:14:49;29.30;59.60
37996;DHT22;23808;50.634;6.948;2022-09-01T13:18:50;29.00;60.40
37996;DHT22;23808;50.634;6.948;2022-09-01T13:22:51;29.40;59.20
37996;DHT22;23808;50.634;6.948;2022-09-01T13:26:54;29.50;59.30
37996;DHT22;23808;50.634;6.948;2022-09-01T13:31:02;29.60;59.00
37996;DHT22;23808;50.634;6.948;2022-09-01T13:35:06;29.60;58.40
37996;DHT22;23808;50.634;6.948;2022-09-01T13:39:07;29.70;58.00
37996;DHT22;23808;50.634;6.948;2022-09-01T13:43:07;29.80;58.50
37996;DHT22;23808;50.634;6.948;2022-09-01T13:47:08;29.80;58.30
37996;DHT22;23808;50.634;6.948;2022-09-01T13:51:09;29.60;57.60
37996;DHT22;23808;50.634;6.948;2022-09-01T13:55:12;29.60;56.90
37996;DHT22;23808;50.634;6.948;2022-09-01T13:59:13;29.70;56.70
37996;DHT22;23808;50.634;6.948;2022-09-01T14:03:18;29.60;55.70
37996;DHT22;23808;50.634;6.948;2022-09-01T14:07:19;29.40;55.70
37996;DHT22;23808;50.634;6.948;2022-09-01T14:11:21;29.40;56.40
37996;DHT22;23808;50.634;6.948;2022-09-01T14:15:22;29.50;57.00
37996;DHT22;23808;50.634;6.948;2022-09-01T14:19:23;29.60;56.10
37996;DHT22;23808;50.634;6.948;2022-09-01T14:23:24;29.70;56.20
37996;DHT22;23808;50.634;6.948;2022-09-01T14:27:24;29.80;56.10
37996;DHT22;23808;50.634;6.948;2022-09-01T14:31:25;29.90;56.40
37996;DHT22;23808;50.634;6.948;2022-09-01T14:35:26;29.90;56.50
37996;DHT22;23808;50.634;6.948;2022-09-01T14:39:27;30.00;56.10
37996;DHT22;23808;50.634;6.948;2022-09-01T14:43:28;29.80;56.30
37996;DHT22;23808;50.634;6.948;2022-09-01T14:47:31;29.80;56.10
37996;DHT22;23808;50.634;6.948;2022-09-01T14:51:32;29.90;54.70
37996;DHT22;23808;50.634;6.948;2022-09-01T14:55:33;30.10;55.90
37996;DHT22;23808;50.634;6.948;2022-09-01T14:59:34;30.30;56.20
37996;DHT22;23808;50.634;6.948;2022-09-01T15:03:35;30.50;54.10
37996;DHT22;23808;50.634;6.948;2022-09-01T15:07:36;30.40;55.00
37996;DHT22;23808;50.634;6.948;2022-09-01T15:11:37;30.40;55.30
37996;DHT22;23808;50.634;6.948;2022-09-01T15:15:38;30.40;54.60
37996;DHT22;23808;50.634;6.948;2022-09-01T15:19:38;30.40;54.30
37996;DHT22;23808;50.634;6.948;2022-09-01T15:23:39;30.00;54.80
37996;DHT22;23808;50.634;6.948;2022-09-01T15:27:39;29.70;55.20
37996;DHT22;23808;50.634;6.948;2022-09-01T15:31:42;29.80;54.70
37996;DHT22;23808;50.634;6.948;2022-09-01T15:35:44;29.70;54.30
37996;DHT22;23808;50.634;6.948;2022-09-01T15:39:45;29.30;54.50
37996;DHT22;23808;50.634;6.948;2022-09-01T15:43:46;29.20;54.50
37996;DHT22;23808;50.634;6.948;2022-09-01T15:47:46;29.00;54.60
37996;DHT22;23808;50.634;6.948;2022-09-01T15:51:55;28.70;55.30
37996;DHT22;23808;50.634;6.948;2022-09-01T15:55:56;28.70;55.80
37996;DHT22;23808;50.634;6.948;2022-09-01T15:59:59;28.70;55.80
37996;DHT22;23808;50.634;6.948;2022-09-01T16:03:59;28.70;55.90
37996;DHT22;23808;50.634;6.948;2022-09-01T16:08:02;28.70;55.90
37996;DHT22;23808;50.634;6.948;2022-09-01T16:12:04;28.90;54.90
37996;DHT22;23808;50.634;6.948;2022-09-01T16:16:12;28.80;54.80
37996;DHT22;23808;50.634;6.948;2022-09-01T16:20:25;28.70;54.90
37996;DHT22;23808;50.634;6.948;2022-09-01T16:24:26;28.60;54.80
37996;DHT22;23808;50.634;6.948;2022-09-01T16:28:35;28.50;55.10
37996;DHT22;23808;50.634;6.948;2022-09-01T16:32:39;28.50;54.00
37996;DHT22;23808;50.634;6.948;2022-09-01T16:37:09;28.40;54.70
37996;DHT22;23808;50.634;6.948;2022-09-01T16:45:58;28.30;54.90
37996;DHT22;23808;50.634;6.948;2022-09-01T16:54:48;28.20;53.40
37996;DHT22;23808;50.634;6.948;2022-09-01T17:03:40;27.20;53.40
37996;DHT22;23808;50.634;6.948;2022-09-01T17:07:51;27.00;53.80
37996;DHT22;23808;50.634;6.948;2022-09-01T17:12:49;26.80;54.20
37996;DHT22;23808;50.634;6.948;2022-09-01T17:16:33;26.70;54.20
37996;DHT22;23808;50.634;6.948;2022-09-01T17:20:40;26.50;54.50
37996;DHT22;23808;50.634;6.948;2022-09-01T17:24:49;26.20;54.70
37996;DHT22;23808;50.634;6.948;2022-09-01T17:28:56;26.10;54.80
37996;DHT22;23808;50.634;6.948;2022-09-01T17:41:55;25.70;55.50
37996;DHT22;23808;50.634;6.948;2022-09-01T17:46:07;25.70;56.10
37996;DHT22;23808;50.634;6.948;2022-09-01T17:50:19;25.50;56.20
37996;DHT22;23808;50.634;6.948;2022-09-01T17:54:50;25.40;56.60
37996;DHT22;23808;50.634;6.948;2022-09-01T17:59:02;25.30;57.00
37996;DHT22;23808;50.634;6.948;2022-09-01T18:07:29;24.90;58.20
37996;DHT22;23808;50.634;6.948;2022-09-01T18:15:49;24.40;58.80
37996;DHT22;23808;50.634;6.948;2022-09-01T18:20:03;24.30;59.70
37996;DHT22;23808;50.634;6.948;2022-09-01T18:24:19;24.10;60.10
37996;DHT22;23808;50.634;6.948;2022-09-01T18:28:20;23.90;61.10
37996;DHT22;23808;50.634;6.948;2022-09-01T18:49:53;23.00;64.50
37996;DHT22;23808;50.634;6.948;2022-09-01T19:11:37;22.60;66.50
37996;DHT22;23808;50.634;6.948;2022-09-01T19:24:10;22.60;66.70
37996;DHT22;23808;50.634;6.948;2022-09-01T19:32:33;22.60;67.60
37996;DHT22;23808;50.634;6.948;2022-09-01T19:36:45;22.60;67.40
37996;DHT22;23808;50.634;6.948;2022-09-01T19:40:49;22.50;67.50
37996;DHT22;23808;50.634;6.948;2022-09-01T19:45:16;22.50;67.70
37996;DHT22;23808;50.634;6.948;2022-09-01T19:50:16;22.40;67.90
37996;DHT22;23808;50.634;6.948;2022-09-01T19:58:25;22.30;68.70
37996;DHT22;23808;50.634;6.948;2022-09-01T20:06:35;22.20;69.20
37996;DHT22;23808;50.634;6.948;2022-09-01T20:23:34;22.00;69.80
37996;DHT22;23808;50.634;6.948;2022-09-01T20:27:49;22.00;69.80
37996;DHT22;23808;50.634;6.948;2022-09-01T20:31:54;22.00;69.10
37996;DHT22;23808;50.634;6.948;2022-09-01T20:36:05;21.90;69.10
37996;DHT22;23808;50.634;6.948;2022-09-01T20:48:40;21.80;69.20
37996;DHT22;23808;50.634;6.948;2022-09-01T21:01:16;21.70;69.60
37996;DHT22;23808;50.634;6.948;2022-09-01T21:09:47;21.70;69.30
37996;DHT22;23808;50.634;6.948;2022-09-01T21:22:09;21.60;69.20
37996;DHT22;23808;50.634;6.948;2022-09-01T21:26:10;21.60;68.90
37996;DHT22;23808;50.634;6.948;2022-09-01T21:30:13;21.60;68.30
37996;DHT22;23808;50.634;6.948;2022-09-01T21:34:14;21.60;67.70
37996;DHT22;23808;50.634;6.948;2022-09-01T21:38:14;21.60;67.40
37996;DHT22;23808;50.634;6.948;2022-09-01T21:42:19;21.60;67.20
37996;DHT22;23808;50.634;6.948;2022-09-01T21:46:21;21.60;67.10
37996;DHT22;23808;50.634;6.948;2022-09-01T21:50:23;21.60;67.00
37996;DHT22;23808;50.634;6.948;2022-09-01T21:54:24;21.60;66.90
37996;DHT22;23808;50.634;6.948;2022-09-01T21:58:24;21.60;66.30
37996;DHT22;23808;50.634;6.948;2022-09-01T22:02:25;21.60;66.00
37996;DHT22;23808;50.634;6.948;2022-09-01T22:06:26;21.60;65.80
37996;DHT22;23808;50.634;6.948;2022-09-01T22:10:29;21.60;65.90
37996;DHT22;23808;50.634;6.948;2022-09-01T22:14:30;21.60;65.90
37996;DHT22;23808;50.634;6.948;2022-09-01T22:18:30;21.60;65.90
37996;DHT22;23808;50.634;6.948;2022-09-01T22:22:32;21.50;66.00
37996;DHT22;23808;50.634;6.948;2022-09-01T22:26:33;21.50;66.00
37996;DHT22;23808;50.634;6.948;2022-09-01T22:30:34;21.40;66.20
37996;DHT22;23808;50.634;6.948;2022-09-01T22:34:35;21.40;66.30
37996;DHT22;23808;50.634;6.948;2022-09-01T22:38:35;21.30;66.50
37996;DHT22;23808;50.634;6.948;2022-09-01T22:42:36;21.30;66.70
37996;DHT22;23808;50.634;6.948;2022-09-01T22:46:38;21.30;66.80
37996;DHT22;23808;50.634;6.948;2022-09-01T22:50:41;21.20;66.90
37996;DHT22;23808;50.634;6.948;2022-09-01T22:54:42;21.20;67.00
37996;DHT22;23808;50.634;6.948;2022-09-01T22:58:43;21.20;67.00
37996;DHT22;23808;50.634;6.948;2022-09-01T23:02:43;21.10;67.00
37996;DHT22;23808;50.634;6.948;2022-09-01T23:06:47;21.10;67.70
37996;DHT22;23808;50.634;6.948;2022-09-01T23:10:48;21.10;67.30
37996;DHT22;23808;50.634;6.948;2022-09-01T23:14:49;21.00;67.40
37996;DHT22;23808;50.634;6.948;2022-09-01T23:18:52;21.00;67.50
37996;DHT22;23808;50.634;6.948;2022-09-01T23:22:52;20.90;67.60
37996;DHT22;23808;50.634;6.948;2022-09-01T23:26:53;20.90;67.60
37996;DHT22;23808;50.634;6.948;2022-09-01T23:30:54;20.80;67.80
37996;DHT22;23808;50.634;6.948;2022-09-01T23:34:55;20.80;68.50
37996;DHT22;23808;50.634;6.948;2022-09-01T23:38:56;20.70;68.50
37996;DHT22;23808;50.634;6.948;2022-09-01T23:42:57;20.70;68.30
37996;DHT22;23808;50.634;6.948;2022-09-01T23:46:57;20.70;68.40
37996;DHT22;23808;50.634;6.948;2022-09-01T23:51:05;20.60;68.60
37996;DHT22;23808;50.634;6.948;2022-09-01T23:55:08;20.60;68.70
37996;DHT22;23808;50.634;6.948;2022-09-01T23:59:08;20.50;68.90
